createdAt,value
2018-10-19T00:00:27.286Z,12.30
2018-10-19T00:02:56.066Z,12.30
2018-10-19T00:05:25.586Z,12.20
2018-10-19T00:07:57.620Z,12.20
2018-10-19T00:10:37.754Z,12.10
2018-10-19T00:13:15.633Z,12.00
2018-10-19T00:15:49.267Z,12.00
2018-10-19T00:18:20.068Z,11.90
2018-10-19T00:20:51.283Z,12.00
2018-10-19T00:23:22.139Z,12.00
2018-10-19T00:25:54.693Z,12.00
2018-10-19T00:28:25.363Z,11.90
2018-10-19T00:30:58.740Z,11.90
2018-10-19T00:33:29.851Z,12.00
2018-10-19T00:36:05.320Z,12.10
2018-10-19T00:38:33.860Z,12.10
2018-10-19T00:41:02.381Z,12.00
2018-10-19T00:43:30.922Z,12.00
2018-10-19T00:45:59.423Z,12.00
2018-10-19T00:48:27.946Z,12.00
2018-10-19T00:50:56.459Z,12.00
2018-10-19T00:53:24.971Z,12.00
2018-10-19T00:55:53.511Z,11.90
2018-10-19T00:58:21.999Z,12.00
2018-10-19T01:00:50.475Z,12.00
2018-10-19T01:03:18.960Z,12.00
2018-10-19T01:05:47.434Z,12.00
2018-10-19T01:08:15.974Z,12.00
2018-10-19T01:10:44.470Z,12.00
2018-10-19T01:13:12.979Z,12.00
2018-10-19T01:15:41.477Z,11.90
2018-10-19T01:18:09.947Z,11.90
2018-10-19T01:20:38.471Z,11.80
2018-10-19T01:23:06.971Z,11.80
2018-10-19T01:25:39.222Z,11.80
2018-10-19T01:28:07.735Z,11.80
2018-10-19T01:30:36.178Z,11.70
2018-10-19T01:33:04.624Z,11.70
2018-10-19T01:35:33.077Z,11.70
2018-10-19T01:38:01.522Z,11.70
2018-10-19T01:40:29.983Z,11.70
2018-10-19T01:42:58.455Z,11.70
2018-10-19T01:45:28.715Z,11.70
2018-10-19T01:47:57.559Z,11.70
2018-10-19T01:50:26.118Z,11.60
2018-10-19T01:52:54.622Z,11.60
2018-10-19T01:55:23.086Z,11.50
2018-10-19T01:57:51.535Z,11.50
2018-10-19T02:00:19.995Z,11.50
2018-10-19T02:02:48.476Z,11.50
2018-10-19T02:05:16.992Z,11.50
2018-10-19T02:07:45.423Z,11.50
2018-10-19T02:10:13.863Z,11.40
2018-10-19T02:12:42.296Z,11.40
2018-10-19T02:15:10.919Z,11.40
2018-10-19T02:17:39.327Z,11.30
2018-10-19T02:20:07.822Z,11.30
2018-10-19T02:22:36.243Z,11.20
2018-10-19T02:25:04.951Z,11.20
2018-10-19T02:27:33.376Z,11.10
2018-10-19T02:30:01.805Z,11.10
2018-10-19T02:32:30.251Z,11.10
2018-10-19T02:34:58.721Z,11.10
2018-10-19T02:37:27.139Z,11.10
2018-10-19T02:39:55.598Z,11.10
2018-10-19T02:42:24.064Z,11.10
2018-10-19T02:44:52.553Z,11.10
2018-10-19T02:47:20.988Z,11.00
2018-10-19T02:49:49.455Z,11.00
2018-10-19T02:52:17.954Z,11.00
2018-10-19T02:54:46.399Z,11.00
2018-10-19T02:57:14.939Z,11.00
2018-10-19T02:59:43.349Z,11.00
2018-10-19T03:02:11.759Z,11.00
2018-10-19T03:04:40.216Z,10.90
2018-10-19T03:07:08.702Z,10.90
2018-10-19T03:09:37.143Z,10.90
2018-10-19T03:12:05.975Z,10.90
2018-10-19T03:14:34.410Z,10.80
2018-10-19T03:17:02.944Z,10.80
2018-10-19T03:19:31.311Z,10.70
2018-10-19T03:21:59.771Z,10.70
2018-10-19T03:24:28.200Z,10.60
2018-10-19T03:26:56.729Z,10.70
2018-10-19T03:29:25.170Z,10.70
2018-10-19T03:31:53.617Z,10.70
2018-10-19T03:34:22.057Z,10.70
2018-10-19T03:36:50.499Z,10.70
2018-10-19T03:39:19.004Z,10.60
2018-10-19T03:41:47.431Z,10.50
2018-10-19T03:44:15.927Z,10.50
2018-10-19T03:46:44.418Z,10.50
2018-10-19T03:49:12.917Z,10.50
2018-10-19T03:51:41.428Z,10.50
2018-10-19T03:54:09.895Z,10.40
2018-10-19T03:56:38.411Z,10.40
2018-10-19T03:59:06.945Z,10.40
2018-10-19T04:01:35.435Z,10.40
2018-10-19T04:04:04.119Z,10.40
2018-10-19T04:06:32.648Z,10.40
2018-10-19T04:09:01.159Z,10.40
2018-10-19T04:11:29.630Z,10.40
2018-10-19T04:13:58.103Z,10.30
2018-10-19T04:16:26.575Z,10.40
2018-10-19T04:18:55.051Z,10.40
2018-10-19T04:21:23.581Z,10.30
2018-10-19T04:23:52.048Z,10.30
2018-10-19T04:26:20.548Z,10.30
2018-10-19T04:28:49.030Z,10.30
2018-10-19T04:31:17.858Z,10.20
2018-10-19T04:33:46.330Z,10.20
2018-10-19T04:36:14.820Z,10.20
2018-10-19T04:38:43.287Z,10.20
2018-10-19T04:41:11.845Z,10.20
2018-10-19T04:43:40.304Z,10.20
2018-10-19T04:46:08.800Z,10.20
2018-10-19T04:48:37.304Z,10.10
2018-10-19T04:51:06.195Z,10.10
2018-10-19T04:53:34.642Z,10.00
2018-10-19T04:56:03.124Z,10.00
2018-10-19T04:58:31.623Z,10.00
2018-10-19T05:01:00.143Z,9.90
2018-10-19T05:03:28.680Z,10.00
2018-10-19T05:05:57.262Z,10.00
2018-10-19T05:08:25.740Z,9.90
2018-10-19T05:10:54.266Z,9.90
2018-10-19T05:13:22.759Z,9.80
2018-10-19T05:15:51.269Z,9.70
2018-10-19T05:18:19.779Z,9.70
2018-10-19T05:20:48.259Z,9.70
2018-10-19T05:23:16.784Z,9.60
2018-10-19T05:25:45.306Z,9.60
2018-10-19T05:28:13.822Z,9.60
2018-10-19T05:30:42.286Z,9.60
2018-10-19T05:33:10.871Z,9.50
2018-10-19T05:35:39.355Z,9.40
2018-10-19T05:38:07.995Z,9.40
2018-10-19T05:40:36.463Z,9.40
2018-10-19T05:43:05.255Z,9.40
2018-10-19T05:45:33.728Z,9.40
2018-10-19T05:48:02.227Z,9.40
2018-10-19T05:50:30.695Z,9.50
2018-10-19T05:52:59.210Z,9.50
2018-10-19T05:55:27.731Z,9.50
2018-10-19T05:57:56.289Z,9.40
2018-10-19T06:00:24.770Z,9.50
2018-10-19T06:02:53.267Z,9.40
2018-10-19T06:05:21.770Z,9.50
2018-10-19T06:07:50.248Z,9.50
2018-10-19T06:10:18.731Z,9.50
2018-10-19T06:12:47.209Z,9.40
2018-10-19T06:15:15.707Z,9.40
2018-10-19T06:17:44.231Z,9.40
2018-10-19T06:20:12.741Z,9.50
2018-10-19T06:22:41.256Z,9.50
2018-10-19T06:25:09.754Z,9.60
2018-10-19T06:27:38.251Z,9.70
2018-10-19T06:30:07.768Z,9.70
2018-10-19T06:32:36.298Z,9.70
2018-10-19T06:35:05.032Z,9.70
2018-10-19T06:37:33.554Z,9.70
2018-10-19T06:40:02.051Z,9.70
2018-10-19T06:42:30.559Z,9.70
2018-10-19T06:44:59.037Z,9.70
2018-10-19T06:47:27.584Z,9.80
2018-10-19T06:49:56.082Z,9.70
2018-10-19T06:52:24.606Z,9.80
2018-10-19T06:54:53.083Z,9.80
2018-10-19T06:57:21.627Z,9.80
2018-10-19T06:59:50.119Z,9.80
2018-10-19T07:02:18.694Z,10.00
2018-10-19T07:04:47.186Z,10.00
2018-10-19T07:07:15.678Z,10.10
2018-10-19T07:09:44.220Z,10.10
2018-10-19T07:12:12.763Z,10.10
2018-10-19T07:14:41.210Z,10.20
2018-10-19T07:17:09.815Z,10.20
2018-10-19T07:19:38.247Z,10.30
2018-10-19T07:22:06.779Z,10.30
2018-10-19T07:24:35.244Z,10.40
2018-10-19T07:27:03.895Z,10.50
2018-10-19T07:29:32.466Z,10.50
2018-10-19T07:32:01.003Z,10.60
2018-10-19T07:34:29.476Z,10.70
2018-10-19T07:36:58.021Z,10.70
2018-10-19T07:39:26.766Z,10.80
2018-10-19T07:41:55.511Z,10.80
2018-10-19T07:44:24.081Z,10.90
2018-10-19T07:46:52.755Z,11.00
2018-10-19T07:49:21.408Z,11.00
2018-10-19T07:51:50.066Z,11.10
2018-10-19T07:54:18.857Z,11.10
2018-10-19T07:56:47.644Z,11.20
2018-10-19T07:59:16.388Z,11.10
2018-10-19T08:01:44.905Z,11.20
2018-10-19T08:04:13.490Z,11.30
2018-10-19T08:06:42.267Z,11.30
2018-10-19T08:09:11.906Z,11.40
2018-10-19T08:11:40.801Z,11.50
2018-10-19T08:14:09.693Z,11.60
2018-10-19T08:16:38.656Z,11.70
2018-10-19T08:19:07.260Z,11.70
2018-10-19T08:21:35.876Z,11.70
2018-10-19T08:24:04.716Z,11.70
2018-10-19T08:26:33.295Z,11.80
2018-10-19T08:29:01.917Z,11.90
2018-10-19T08:31:30.567Z,11.90
2018-10-19T08:33:59.150Z,12.10
2018-10-19T08:36:27.785Z,12.10
2018-10-19T08:38:56.480Z,12.10
2018-10-19T08:41:25.070Z,12.10
2018-10-19T08:43:53.661Z,12.20
2018-10-19T08:46:27.672Z,12.10
2018-10-19T08:48:56.256Z,12.30
2018-10-19T08:51:25.063Z,12.40
2018-10-19T08:53:53.868Z,12.40
2018-10-19T08:56:22.777Z,12.60
2018-10-19T08:58:51.653Z,12.60
2018-10-19T09:01:20.506Z,12.70
2018-10-19T09:03:49.248Z,12.80
2018-10-19T09:06:17.991Z,12.80
2018-10-19T09:08:46.650Z,12.80
2018-10-19T09:11:15.356Z,12.90
2018-10-19T09:13:44.103Z,12.90
2018-10-19T09:16:12.914Z,13.00
2018-10-19T09:18:41.792Z,13.00
2018-10-19T09:21:10.599Z,13.10
2018-10-19T09:23:39.317Z,13.10
2018-10-19T09:26:08.175Z,13.20
2018-10-19T09:28:36.719Z,13.30
2018-10-19T09:31:05.821Z,13.40
2018-10-19T09:33:34.571Z,13.50
2018-10-19T09:36:03.309Z,13.60
2018-10-19T09:38:31.748Z,13.60
2018-10-19T09:41:00.324Z,13.60
2018-10-19T09:43:28.757Z,13.70
2018-10-19T09:45:57.246Z,13.90
2018-10-19T09:48:25.766Z,14.00
2018-10-19T09:50:54.275Z,14.10
2018-10-19T09:53:22.799Z,14.00
2018-10-19T09:55:51.606Z,14.00
2018-10-19T09:58:20.261Z,13.90
2018-10-19T10:00:54.086Z,13.90
2018-10-19T10:03:22.927Z,14.00
2018-10-19T10:05:51.680Z,14.20
2018-10-19T10:08:20.529Z,14.40
2018-10-19T10:10:49.608Z,14.50
2018-10-19T10:13:18.676Z,14.50
2018-10-19T10:15:47.507Z,14.60
2018-10-19T10:18:16.217Z,14.70
2018-10-19T10:20:44.909Z,14.70
2018-10-19T10:23:13.696Z,14.70
2018-10-19T10:25:42.444Z,14.70
2018-10-19T10:28:11.309Z,14.60
2018-10-19T10:30:40.150Z,14.80
2018-10-19T10:33:08.972Z,14.90
2018-10-19T10:35:37.605Z,15.00
2018-10-19T10:38:06.570Z,15.20
2018-10-19T10:40:35.181Z,15.00
2018-10-19T10:43:03.789Z,15.00
2018-10-19T10:45:32.404Z,15.10
2018-10-19T10:48:01.061Z,15.20
2018-10-19T10:50:29.641Z,15.20
2018-10-19T10:52:58.485Z,15.20
2018-10-19T10:55:27.100Z,15.40
2018-10-19T10:57:55.906Z,15.50
2018-10-19T11:00:24.554Z,15.50
2018-10-19T11:02:53.239Z,15.60
2018-10-19T11:05:21.920Z,15.80
2018-10-19T11:07:50.618Z,15.90
2018-10-19T11:10:19.331Z,15.70
2018-10-19T11:12:48.126Z,15.90
2018-10-19T11:15:16.743Z,15.90
2018-10-19T11:17:45.357Z,16.00
2018-10-19T11:20:14.133Z,15.90
2018-10-19T11:22:42.774Z,16.00
2018-10-19T11:25:11.455Z,15.90
2018-10-19T11:27:40.037Z,16.10
2018-10-19T11:30:09.175Z,16.20
2018-10-19T11:32:37.803Z,16.30
2018-10-19T11:35:06.822Z,16.30
2018-10-19T11:37:35.446Z,16.20
2018-10-19T11:40:31.635Z,16.20
2018-10-19T11:43:00.209Z,16.10
2018-10-19T11:45:30.107Z,16.10
2018-10-19T11:47:58.652Z,16.10
2018-10-19T11:50:27.144Z,16.20
2018-10-19T11:52:55.582Z,16.30
2018-10-19T11:55:24.044Z,16.20
2018-10-19T11:57:52.895Z,16.20
2018-10-19T12:00:21.476Z,16.30
2018-10-19T12:02:49.943Z,16.20
2018-10-19T12:05:18.457Z,16.20
2018-10-19T12:07:46.950Z,16.30
2018-10-19T12:10:15.748Z,16.50
2018-10-19T12:12:44.378Z,16.60
2018-10-19T12:15:15.518Z,16.70
2018-10-19T12:17:44.337Z,16.70
2018-10-19T12:20:14.158Z,16.80
2018-10-19T12:22:42.605Z,16.80
2018-10-19T12:25:12.095Z,16.80
2018-10-19T12:27:40.797Z,16.90
2018-10-19T12:30:09.914Z,17.00
2018-10-19T12:32:38.715Z,17.20
2018-10-19T12:35:08.822Z,17.10
2018-10-19T12:37:37.266Z,17.10
2018-10-19T12:40:06.262Z,17.20
2018-10-19T12:42:34.684Z,17.30
2018-10-19T12:45:04.091Z,17.20
2018-10-19T12:47:34.813Z,17.30
2018-10-19T12:50:03.379Z,17.30
2018-10-19T12:52:31.838Z,17.30
2018-10-19T12:55:00.402Z,17.20
2018-10-19T12:57:28.919Z,17.20
2018-10-19T12:59:57.573Z,17.30
2018-10-19T13:02:26.091Z,17.30
2018-10-19T13:04:54.674Z,17.30
2018-10-19T13:07:23.371Z,17.30
2018-10-19T13:09:52.155Z,17.30
2018-10-19T13:12:20.654Z,17.30
2018-10-19T13:14:49.162Z,17.20
2018-10-19T13:17:17.679Z,17.10
2018-10-19T13:19:46.154Z,17.20
2018-10-19T13:22:14.603Z,17.30
2018-10-19T13:24:43.129Z,17.40
2018-10-19T13:27:11.673Z,17.30
2018-10-19T13:29:40.123Z,17.30
2018-10-19T13:32:08.605Z,17.40
2018-10-19T13:34:37.103Z,17.60
2018-10-19T13:37:05.627Z,17.60
2018-10-19T13:39:34.120Z,17.60
2018-10-19T13:42:02.582Z,17.50
2018-10-19T13:44:31.056Z,17.70
2018-10-19T13:46:59.516Z,17.70
2018-10-19T13:49:27.984Z,17.80
2018-10-19T13:51:56.406Z,17.70
2018-10-19T13:54:24.868Z,17.70
2018-10-19T13:56:53.308Z,17.80
2018-10-19T13:59:21.763Z,17.70
2018-10-19T14:01:50.228Z,17.70
2018-10-19T14:04:18.641Z,17.60
2018-10-19T14:06:47.106Z,17.60
2018-10-19T14:09:15.562Z,17.70
2018-10-19T14:11:43.987Z,17.70
2018-10-19T14:14:12.402Z,17.70
2018-10-19T14:16:40.846Z,17.80
2018-10-19T14:19:09.326Z,17.80
2018-10-19T14:21:37.738Z,17.80
2018-10-19T14:24:06.178Z,17.90
2018-10-19T14:26:34.671Z,18.00
2018-10-19T14:29:03.133Z,18.00
2018-10-19T14:31:31.546Z,18.00
2018-10-19T14:33:59.993Z,18.10
2018-10-19T14:36:28.502Z,18.10
2018-10-19T14:38:56.968Z,18.10
2018-10-19T14:41:25.465Z,18.10
2018-10-19T14:43:54.114Z,18.10
2018-10-19T14:46:22.576Z,18.10
2018-10-19T14:48:51.124Z,18.10
2018-10-19T14:51:19.583Z,18.00
2018-10-19T14:53:48.054Z,18.10
2018-10-19T14:56:16.660Z,18.00
2018-10-19T14:58:45.122Z,18.00
2018-10-19T15:01:13.629Z,18.10
2018-10-19T15:03:42.071Z,18.10
2018-10-19T15:06:10.601Z,18.10
2018-10-19T15:08:39.053Z,18.10
2018-10-19T15:11:07.720Z,18.10
2018-10-19T15:13:36.009Z,18.20
2018-10-19T15:16:04.603Z,18.10
2018-10-19T15:18:33.098Z,18.10
2018-10-19T15:21:01.688Z,18.00
2018-10-19T15:23:30.121Z,18.00
2018-10-19T15:25:58.590Z,17.90
2018-10-19T15:28:27.054Z,17.90
2018-10-19T15:30:55.541Z,17.90
2018-10-19T15:33:24.034Z,17.90
2018-10-19T15:35:52.562Z,17.90
2018-10-19T15:38:21.036Z,17.80
2018-10-19T15:40:49.538Z,17.80
2018-10-19T15:43:18.104Z,17.80
2018-10-19T15:45:46.606Z,17.70
2018-10-19T15:48:15.197Z,17.70
2018-10-19T15:50:43.640Z,17.60
2018-10-19T15:53:12.163Z,17.50
2018-10-19T15:55:40.645Z,17.40
2018-10-19T15:58:09.174Z,17.40
2018-10-19T16:00:37.685Z,17.30
2018-10-19T16:03:06.224Z,17.30
2018-10-19T16:05:34.708Z,17.30
2018-10-19T16:08:03.230Z,17.20
2018-10-19T16:10:31.710Z,17.20
2018-10-19T16:13:00.194Z,17.20
2018-10-19T16:15:28.731Z,17.10
2018-10-19T16:17:57.323Z,17.10
2018-10-19T16:20:25.773Z,17.00
2018-10-19T16:22:54.283Z,17.00
2018-10-19T16:25:22.767Z,17.00
2018-10-19T16:27:51.316Z,16.90
2018-10-19T16:30:19.791Z,16.90
2018-10-19T16:32:48.270Z,16.80
2018-10-19T16:35:16.727Z,16.70
2018-10-19T16:37:45.217Z,16.70
2018-10-19T16:40:13.671Z,16.70
2018-10-19T16:42:42.170Z,16.60
2018-10-19T16:45:10.659Z,16.50
2018-10-19T16:47:39.165Z,16.40
2018-10-19T16:50:07.739Z,16.30
2018-10-19T16:52:36.268Z,16.20
2018-10-19T16:55:04.783Z,16.00
2018-10-19T16:57:33.730Z,16.00
2018-10-19T17:00:02.315Z,15.90
2018-10-19T17:02:30.778Z,15.90
2018-10-19T17:04:59.262Z,15.90
2018-10-19T17:07:27.736Z,15.90
2018-10-19T17:09:56.229Z,15.90
2018-10-19T17:12:24.727Z,15.80
2018-10-19T17:14:53.283Z,15.80
2018-10-19T17:17:21.735Z,15.80
2018-10-19T17:19:50.193Z,15.70
2018-10-19T17:22:18.682Z,15.70
2018-10-19T17:24:47.205Z,15.70
2018-10-19T17:27:15.735Z,15.70
2018-10-19T17:29:44.213Z,15.60
2018-10-19T17:32:12.733Z,15.50
2018-10-19T17:34:41.198Z,15.40
2018-10-19T17:37:09.751Z,15.40
2018-10-19T17:39:38.205Z,15.30
2018-10-19T17:42:06.715Z,15.30
2018-10-19T17:44:35.202Z,15.30
2018-10-19T17:47:03.754Z,15.30
2018-10-19T17:49:32.215Z,15.20
2018-10-19T17:52:00.667Z,15.20
2018-10-19T17:54:29.224Z,15.20
2018-10-19T17:56:57.601Z,15.10
2018-10-19T17:59:26.095Z,15.10
2018-10-19T18:01:54.551Z,15.00
2018-10-19T18:04:23.046Z,15.00
2018-10-19T18:06:51.513Z,14.90
2018-10-19T18:09:19.981Z,14.80
2018-10-19T18:11:48.455Z,14.80
2018-10-19T18:14:16.918Z,14.70
2018-10-19T18:16:45.371Z,14.60
2018-10-19T18:19:13.846Z,14.50
2018-10-19T18:21:42.357Z,14.50
2018-10-19T18:24:10.766Z,14.40
2018-10-19T18:26:39.201Z,14.40
2018-10-19T18:29:07.708Z,14.30
2018-10-19T18:31:36.128Z,14.30
2018-10-19T18:34:04.663Z,14.30
2018-10-19T18:36:33.059Z,14.20
2018-10-19T18:39:01.515Z,14.20
2018-10-19T18:41:30.003Z,14.10
2018-10-19T18:43:58.458Z,14.10
2018-10-19T18:46:26.866Z,14.10
2018-10-19T18:48:55.364Z,14.10
2018-10-19T18:51:23.832Z,14.10
2018-10-19T18:53:52.361Z,14.00
2018-10-19T18:56:20.809Z,13.90
2018-10-19T18:58:49.316Z,13.90
2018-10-19T19:01:17.752Z,13.80
2018-10-19T19:03:46.209Z,13.70
2018-10-19T19:06:14.686Z,13.70
2018-10-19T19:08:43.160Z,13.70
2018-10-19T19:11:11.671Z,13.60
2018-10-19T19:13:47.358Z,13.60
2018-10-19T19:16:21.272Z,13.60
2018-10-19T19:18:49.753Z,13.60
2018-10-19T19:21:18.236Z,13.60
2018-10-19T19:23:52.086Z,13.50
2018-10-19T19:26:21.946Z,13.50
2018-10-19T19:28:50.447Z,13.40
2018-10-19T19:31:18.940Z,13.30
2018-10-19T19:33:52.878Z,13.30
2018-10-19T19:36:21.369Z,13.30
2018-10-19T19:38:49.910Z,13.20
2018-10-19T19:41:23.745Z,13.20
2018-10-19T19:43:52.196Z,13.10
2018-10-19T19:46:20.685Z,13.10
2018-10-19T19:48:54.339Z,13.10
2018-10-19T19:51:22.778Z,13.10
2018-10-19T19:53:51.203Z,13.00
2018-10-19T19:56:19.630Z,13.00
2018-10-19T19:58:48.062Z,13.00
2018-10-19T20:01:16.513Z,13.00
2018-10-19T20:03:44.912Z,13.00
2018-10-19T20:06:13.462Z,13.00
2018-10-19T20:08:41.785Z,13.00
2018-10-19T20:11:10.357Z,12.90
2018-10-19T20:13:38.731Z,12.80
2018-10-19T20:16:07.171Z,12.80
2018-10-19T20:18:35.581Z,12.80
2018-10-19T20:21:04.026Z,12.70
2018-10-19T20:23:32.443Z,12.60
2018-10-19T20:26:00.967Z,12.60
2018-10-19T20:28:29.337Z,12.60
2018-10-19T20:30:57.765Z,12.50
2018-10-19T20:33:26.227Z,12.50
2018-10-19T20:35:54.651Z,12.40
2018-10-19T20:38:23.067Z,12.40
2018-10-19T20:40:51.600Z,12.40
2018-10-19T20:43:19.994Z,12.40
2018-10-19T20:45:48.474Z,12.40
2018-10-19T20:48:16.935Z,12.40
2018-10-19T20:50:45.365Z,12.40
2018-10-19T20:53:13.863Z,12.40
2018-10-19T20:55:42.301Z,12.30
2018-10-19T20:58:10.705Z,12.30
2018-10-19T21:00:39.132Z,12.20
2018-10-19T21:03:07.614Z,12.20
2018-10-19T21:05:36.039Z,12.20
2018-10-19T21:08:04.819Z,12.20
2018-10-19T21:10:33.235Z,12.20
2018-10-19T21:13:01.719Z,12.20
2018-10-19T21:15:30.145Z,12.10
2018-10-19T21:17:58.569Z,12.00
2018-10-19T21:20:27.036Z,12.00
2018-10-19T21:22:55.452Z,11.90
2018-10-19T21:25:23.969Z,11.90
2018-10-19T21:27:52.403Z,11.90
2018-10-19T21:30:20.835Z,11.90
2018-10-19T21:32:49.238Z,11.90
2018-10-19T21:35:17.671Z,11.80
2018-10-19T21:37:46.125Z,11.80
2018-10-19T21:40:14.597Z,11.70
2018-10-19T21:42:43.039Z,11.70
2018-10-19T21:45:11.453Z,11.70
2018-10-19T21:47:39.882Z,11.60
2018-10-19T21:50:09.069Z,11.60
2018-10-19T21:52:37.501Z,11.60
2018-10-19T21:55:06.873Z,11.60
2018-10-19T21:57:35.337Z,11.60
2018-10-19T22:00:03.865Z,11.60
2018-10-19T22:02:32.323Z,11.50
2018-10-19T22:05:00.784Z,11.60
2018-10-19T22:07:29.289Z,11.50
2018-10-19T22:09:57.759Z,11.60
2018-10-19T22:12:26.236Z,11.60
2018-10-19T22:14:54.712Z,11.50
2018-10-19T22:17:23.177Z,11.50
2018-10-19T22:19:51.650Z,11.50
2018-10-19T22:22:20.167Z,11.40
2018-10-19T22:24:48.612Z,11.40
2018-10-19T22:27:17.086Z,11.40
2018-10-19T22:29:45.537Z,11.30
2018-10-19T22:32:13.997Z,11.30
2018-10-19T22:34:42.464Z,11.20
2018-10-19T22:37:11.039Z,11.20
2018-10-19T22:39:39.471Z,11.20
2018-10-19T22:42:07.937Z,11.20
2018-10-19T22:44:36.386Z,11.40
2018-10-19T22:47:05.070Z,11.40
2018-10-19T22:49:33.534Z,11.40
2018-10-19T22:52:02.018Z,11.20
2018-10-19T22:54:30.457Z,11.10
2018-10-19T22:56:58.906Z,11.00
2018-10-19T22:59:27.387Z,11.00
2018-10-19T23:01:55.833Z,11.00
2018-10-19T23:04:24.276Z,10.90
2018-10-19T23:06:52.885Z,10.80
2018-10-19T23:09:21.326Z,10.70
2018-10-19T23:11:49.794Z,10.60
2018-10-19T23:14:18.233Z,10.60
2018-10-19T23:16:46.718Z,10.70
2018-10-19T23:19:15.249Z,10.80
2018-10-19T23:21:43.740Z,10.80
2018-10-19T23:24:12.165Z,10.80
2018-10-19T23:26:40.614Z,10.70
2018-10-19T23:29:09.160Z,10.60
2018-10-19T23:31:37.819Z,10.60
2018-10-19T23:34:06.233Z,10.50
2018-10-19T23:36:34.688Z,10.50
2018-10-19T23:39:03.246Z,10.60
2018-10-19T23:41:31.709Z,10.70
2018-10-19T23:44:00.292Z,10.50
2018-10-19T23:46:28.815Z,10.40
2018-10-19T23:48:57.350Z,10.40
2018-10-19T23:51:25.823Z,10.40
2018-10-19T23:53:54.280Z,10.40
2018-10-19T23:56:22.789Z,10.40
2018-10-19T23:58:51.324Z,10.40
